Historyczne dane pomiarowe

Dodano dane terminowe – wersja testowa.

Dane z okresu 1951-2019

Wersja bazy: 1.34 [2019-03-16, lista zmian], aktualizacja planowana na 2019-04-15

Dane meteo z obszaru Polski uzyskane na podstawie danych udostępnionych przez Instytut Meteorologii i Gospodarki Wodnej – Państwowy Instytut Badawczy.

 

Wybierz Datę:    

       

TemperaturaWilgotnośćWiatrCiśnienieOpadyŚniegCzas trwania zjawisk
 Stacja t tx tn tng RH VA  wxwx mslp ppp RRR   cm mm wxwxwxwxwxwxwx
1995-09-11 13.8 21.4 7.5- 75.3- 2.7 1.3---- 0.8------------
1995-09-12 15.8 21.4 7.0- 76.0- 2.0 1.0---- 0.0------------
1995-09-13 17.1 22.4 7.5- 73.8- 2.7 1.0---- 0.0------------
1995-09-14 18.9 26.4 8.0- 76.0- 5.0 1.3---- 0.0------------
1995-09-15 16.5 20.9 9.0- 82.0- 6.0 1.7---- 0.0------------
1995-09-16 14.3 16.4 7.5- 88.0- 6.3 1.3---- 11.0------------
1995-09-17 10.2 12.4 9.5- 91.0- 7.0 3.3---- 6.0------------
1995-09-18 9.1 10.9 8.2- 87.5- 7.3 3.3---- 0.0------------
1995-09-19 9.1 12.4 8.2- 81.3- 6.7 2.0---- 0.0------------
1995-09-20 9.5 14.4 5.5- 83.5- 6.7 2.7---- 26.0------------
1995-09-21 10.5 14.9 9.9- 77.5- 6.0 3.7---- 1.6------------
1995-09-22 9.1 16.9 6.5- 77.3- 3.3 2.0---- 0.0------------
1995-09-23 12.4 16.9 6.5- 82.8- 5.7 2.7---- 0.4------------
1995-09-24 11.0 16.9 4.0- 79.5- 4.3 3.0---- 0.0------------
1995-09-25 13.1 20.9 8.5- 86.5- 2.7 3.3---- 0.0------------
1995-09-26 13.2 18.5 9.0- 73.0- 4.7 3.0---- 5.0------------
1995-09-27 11.0 14.4 8.5- 84.5- 6.3 3.0---- 0.0------------
1995-09-28 8.8 11.4 7.0- 72.0- 6.3 5.0---- 3.0------------
1995-09-29 7.4 9.4 5.5- 74.3- 5.3 7.3---- 0.0------------
1995-09-30 4.8 8.1 3.0- 85.5- 6.3 4.7---- 4.0------------
1995-10-01 6.1 10.9 3.5- 88.0- 6.0 3.3---- 2.8------------
1995-10-02 8.1 13.9 4.4- 82.5- 5.0 2.7---- 0.0------------
1995-10-03 8.6 16.9 1.5- 78.5- 2.3 2.0---- 0.0------------
1995-10-04 12.9 17.9 8.0- 84.0- 6.7 3.0---- 0.3------------
1995-10-05 12.8 19.4 10.0- 88.3- 7.0 1.0---- 0.0------------
1995-10-06 12.3 15.4 10.0- 88.0- 7.0 1.3---- 0.0------------
1995-10-07 12.7 16.4 9.0- 89.5- 7.3 1.0---- 0.0------------
1995-10-08 14.2 16.4 12.0- 89.8- 6.7 1.7---- 1.0------------
1995-10-09 16.5 21.4 14.5- 82.3- 3.3 1.7---- 0.0------------
1995-10-10 15.0 25.9 7.5- 77.8- 6.0 1.0---- 0.0------------
303.9 ms

 

Źródłem pochodzenia danych jest Instytut Meteorologii i Gospodarki Wodnej – Państwowy Instytut Badawczy. Dane Instytutu Meteorologii i Gospodarki Wodnej – Państwowego Instytutu Badawczego zostały przetworzone.

Dane źródłowe można odnaleźć na stronie https://dane.imgw.pl